Time;durP1;ratioP1;P1;durP2;ratioP2;P2;SDS_P1;SDS_P2;PMS_P1;PMS_P2;Temp;Humidity;BMP_temperature;BMP_pressure;BME280_temperature;BME280_humidity;BME280_pressure;Samples;Min_cycle;Max_cycle;Signal;HPM_P1;HPM_P2
2024/01/15 00:01:55;;;;;;;1999.90;999.90;;;;;;;-6.41;78.69;95844.69;5113847;28;20051;-65
2024/01/15 00:04:24;;;;;;;1999.90;999.90;;;;;;;-6.33;79.59;95848.22;5113799;28;20100;-63
2024/01/15 00:06:51;;;;;;;1999.90;999.90;;;;;;;-6.45;79.74;95837.84;5113810;28;20124;-66
2024/01/15 00:09:18;;;;;;;1999.90;999.90;;;;;;;-6.42;80.08;95838.72;5113687;28;20429;-65
2024/01/15 00:11:46;;;;;;;1999.90;999.90;;;;;;;-6.33;79.64;95834.66;5113820;28;20047;-64
2024/01/15 00:14:14;;;;;;;1999.90;999.90;;;;;;;-6.35;79.24;95835.47;5113714;28;20055;-63
2024/01/15 00:16:41;;;;;;;1999.90;999.90;;;;;;;-6.35;78.48;95839.72;5113699;28;20043;-66
2024/01/15 00:19:08;;;;;;;1999.90;999.90;;;;;;;-6.40;79.14;95826.03;5113679;28;20043;-64
2024/01/15 00:21:37;;;;;;;1999.90;999.90;;;;;;;-6.48;79.65;95833.53;5113597;28;20056;-65
2024/01/15 00:24:04;;;;;;;1999.90;999.90;;;;;;;-6.48;80.06;95831.84;5113988;28;20071;-66
2024/01/15 00:26:31;;;;;;;1999.90;999.90;;;;;;;-6.50;79.40;95836.03;5113632;28;20054;-63
2024/01/15 00:28:59;;;;;;;1999.90;999.90;;;;;;;-6.45;79.31;95842.94;5113562;28;20108;-66
2024/01/15 00:31:26;;;;;;;1999.90;999.90;;;;;;;-6.52;79.47;95837.72;5113457;28;20142;-64
2024/01/15 00:33:53;;;;;;;1999.90;999.90;;;;;;;-6.49;79.66;95845.41;5113504;28;20047;-65
2024/01/15 00:36:20;;;;;;;1999.90;999.90;;;;;;;-6.52;79.21;95839.41;5113444;28;20070;-63
2024/01/15 00:38:49;;;;;;;1999.90;999.90;;;;;;;-6.62;79.68;95839.22;5113528;28;20047;-64
2024/01/15 00:41:16;;;;;;;1999.90;999.90;;;;;;;-6.55;79.68;95832.59;5113511;28;20075;-64
2024/01/15 00:43:43;;;;;;;1999.90;999.90;;;;;;;-6.58;79.18;95839.28;5113568;28;20155;-66
2024/01/15 00:46:10;;;;;;;1999.90;999.90;;;;;;;-6.50;80.10;95837.75;5113673;28;20044;-65
2024/01/15 00:48:37;;;;;;;1999.90;999.90;;;;;;;-6.51;79.71;95834.34;5113550;28;20043;-66
2024/01/15 00:51:05;;;;;;;1999.90;999.90;;;;;;;-6.56;79.25;95847.81;5113353;28;20056;-64
2024/01/15 00:53:32;;;;;;;1999.90;999.90;;;;;;;-6.52;79.80;95844.50;5113287;28;20040;-64
2024/01/15 00:56:01;;;;;;;1999.90;999.90;;;;;;;-6.50;79.65;95841.13;5113290;28;20477;-66
2024/01/15 00:58:28;;;;;;;1999.90;999.90;;;;;;;-6.50;79.37;95846.22;5116363;28;20047;-64
2024/01/15 01:00:56;;;;;;;1999.90;999.90;;;;;;;-6.64;78.79;95846.00;5117405;28;20105;-64
2024/01/15 01:03:23;;;;;;;1999.90;999.90;;;;;;;-6.62;79.63;95843.50;5117355;28;20492;-65
2024/01/15 01:05:50;;;;;;;1999.90;999.90;;;;;;;-6.68;78.88;95838.28;5117276;28;20089;-63
2024/01/15 01:08:17;;;;;;;1999.90;999.90;;;;;;;-6.68;79.17;95835.72;5117246;28;20237;-65
2024/01/15 01:10:44;;;;;;;1999.90;999.90;;;;;;;-6.70;78.78;95832.28;5117465;28;20052;-63
2024/01/15 01:13:13;;;;;;;1999.90;999.90;;;;;;;-6.72;78.82;95833.13;5117211;28;20048;-65
2024/01/15 01:15:40;;;;;;;1999.90;999.90;;;;;;;-6.73;78.75;95831.44;5117112;28;20043;-65
2024/01/15 01:18:07;;;;;;;1999.90;999.90;;;;;;;-6.84;78.92;95835.44;5117271;28;20079;-66
2024/01/15 01:20:35;;;;;;;1999.90;999.90;;;;;;;-6.77;79.26;95831.34;5116934;28;20043;-64
2024/01/15 01:23:01;;;;;;;1999.90;999.90;;;;;;;-6.79;79.82;95817.72;5116907;28;20104;-66
2024/01/15 01:25:29;;;;;;;1999.90;999.90;;;;;;;-6.82;79.72;95830.38;5116919;28;20052;-64
2024/01/15 01:27:57;;;;;;;1999.90;999.90;;;;;;;-6.80;79.97;95834.69;5116822;28;20048;-63
2024/01/15 01:30:25;;;;;;;1999.90;999.90;;;;;;;-6.99;79.13;95836.00;5116651;28;20052;-63
2024/01/15 01:32:52;;;;;;;1999.90;999.90;;;;;;;-7.00;80.13;95835.16;5116840;28;20040;-65
2024/01/15 01:35:20;;;;;;;1999.90;999.90;;;;;;;-6.98;81.03;95823.31;5116565;28;20057;-65
2024/01/15 01:37:47;;;;;;;1999.90;999.90;;;;;;;-6.97;81.07;95829.28;5116869;28;20405;-66
2024/01/15 01:40:14;;;;;;;1999.90;999.90;;;;;;;-6.90;81.36;95828.56;5116637;28;20044;-63
2024/01/15 01:42:41;;;;;;;1999.90;999.90;;;;;;;-6.89;81.61;95827.72;5116512;28;20043;-65
2024/01/15 01:45:09;;;;;;;1999.90;999.90;;;;;;;-6.86;80.97;95829.47;5116425;28;20400;-64
2024/01/15 01:47:39;;;;;;;1999.90;999.90;;;;;;;-6.83;80.63;95828.69;5116471;28;20055;-64
2024/01/15 01:50:07;;;;;;;1999.90;999.90;;;;;;;-6.89;80.52;95824.34;5116336;28;20461;-66
2024/01/15 01:52:35;;;;;;;1999.90;999.90;;;;;;;-6.88;79.93;95820.94;5116422;28;20044;-66
2024/01/15 01:55:03;;;;;;;1999.90;999.90;;;;;;;-7.01;79.69;95813.09;5116383;28;20047;-66
2024/01/15 01:57:34;;;;;;;1999.90;999.90;;;;;;;-7.06;80.69;95808.75;5116341;28;20481;-65
2024/01/15 02:00:03;;;;;;;1999.90;999.90;;;;;;;-7.14;80.50;95800.97;5116282;28;20055;-64
2024/01/15 02:02:30;;;;;;;1999.90;999.90;;;;;;;-7.11;80.52;95790.84;5116132;28;20082;-66
2024/01/15 02:04:59;;;;;;;1999.90;999.90;;;;;;;-7.23;80.80;95789.78;5116098;28;20043;-63
2024/01/15 02:07:26;;;;;;;1999.90;999.90;;;;;;;-7.14;80.95;95793.31;5116109;28;20047;-66
2024/01/15 02:09:53;;;;;;;1999.90;999.90;;;;;;;-7.08;80.55;95793.44;5115793;28;20079;-64
2024/01/15 02:12:20;;;;;;;1999.90;999.90;;;;;;;-7.10;80.22;95795.13;5116084;28;20044;-63
2024/01/15 02:14:48;;;;;;;1999.90;999.90;;;;;;;-7.10;80.31;95792.59;5115847;28;20101;-65
2024/01/15 02:17:15;;;;;;;1999.90;999.90;;;;;;;-7.06;80.85;95796.03;5116407;28;20044;-66
2024/01/15 02:19:42;;;;;;;1999.90;999.90;;;;;;;-7.09;80.64;95796.84;5116127;28;20051;-63
2024/01/15 02:22:10;;;;;;;1999.90;999.90;;;;;;;-6.96;80.76;95780.09;5115855;28;20134;-66
2024/01/15 02:24:38;;;;;;;1999.90;999.90;;;;;;;-6.95;80.50;95781.84;5115713;28;20077;-66
2024/01/15 02:27:06;;;;;;;1999.90;999.90;;;;;;;-6.90;80.11;95772.59;5115787;28;20485;-65
2024/01/15 02:29:33;;;;;;;1999.90;999.90;;;;;;;-6.93;79.72;95770.00;5115656;28;20044;-66
2024/01/15 02:32:00;;;;;;;1999.90;999.90;;;;;;;-6.93;79.53;95782.72;5115543;28;20066;-64
2024/01/15 02:34:27;;;;;;;1999.90;999.90;;;;;;;-6.92;79.72;95776.81;5115518;28;20048;-64
2024/01/15 02:36:54;;;;;;;1999.90;999.90;;;;;;;-6.87;79.92;95775.19;5115791;28;20046;-66
2024/01/15 02:39:21;;;;;;;1999.90;999.90;;;;;;;-6.86;79.59;95774.34;5115576;28;20408;-64
2024/01/15 02:41:49;;;;;;;1999.90;999.90;;;;;;;-6.92;80.01;95775.94;5115387;28;20138;-65
2024/01/15 02:44:16;;;;;;;1999.90;999.90;;;;;;;-7.01;80.13;95767.31;5115421;28;20079;-66
2024/01/15 02:46:43;;;;;;;1999.90;999.90;;;;;;;-7.03;80.28;95763.88;5115369;28;20082;-65
2024/01/15 02:49:10;;;;;;;1999.90;999.90;;;;;;;-7.00;80.19;95765.63;5115262;28;20109;-64
2024/01/15 02:51:37;;;;;;;1999.90;999.90;;;;;;;-7.05;80.09;95757.91;5114849;28;20510;-64
2024/01/15 02:54:05;;;;;;;1999.90;999.90;;;;;;;-7.03;80.38;95763.88;5115277;28;20044;-66
2024/01/15 02:56:32;;;;;;;1999.90;999.90;;;;;;;-7.00;80.08;95766.50;5115141;28;20134;-63
2024/01/15 02:59:00;;;;;;;1999.90;999.90;;;;;;;-6.95;79.78;95766.59;5115094;28;20109;-66
2024/01/15 03:01:27;;;;;;;1999.90;999.90;;;;;;;-6.92;79.93;95769.19;5114988;28;20043;-65
2024/01/15 03:03:55;;;;;;;1999.90;999.90;;;;;;;-6.93;80.35;95757.28;5114979;28;20066;-63
2024/01/15 03:06:22;;;;;;;1999.90;999.90;;;;;;;-6.85;80.33;95754.88;5114952;28;20126;-63
2024/01/15 03:08:49;;;;;;;1999.90;999.90;;;;;;;-6.81;80.02;95751.53;5114918;28;20054;-64
2024/01/15 03:11:16;;;;;;;1999.90;999.90;;;;;;;-6.89;79.92;95753.94;5114674;28;20497;-64
2024/01/15 03:13:43;;;;;;;1999.90;999.90;;;;;;;-6.85;80.06;95754.88;5114840;28;20094;-65
2024/01/15 03:16:11;;;;;;;1999.90;999.90;;;;;;;-6.82;79.53;95762.56;5114737;28;20092;-66
2024/01/15 03:18:38;;;;;;;1999.90;999.90;;;;;;;-7.01;79.76;95761.38;5114685;28;20095;-65
2024/01/15 03:21:07;;;;;;;1999.90;999.90;;;;;;;-6.94;81.11;95763.19;5114102;28;20052;-62
2024/01/15 03:23:34;;;;;;;1999.90;999.90;;;;;;;-6.94;81.51;95765.75;5114658;28;20049;-64
2024/01/15 03:26:01;;;;;;;1999.90;999.90;;;;;;;-6.94;80.99;95768.28;5114515;28;20094;-62
2024/01/15 03:28:30;;;;;;;1999.90;999.90;;;;;;;-6.90;80.88;95767.50;5114541;28;20420;-65
2024/01/15 03:30:57;;;;;;;1999.90;999.90;;;;;;;-6.99;80.12;95780.03;5114319;28;20051;-65
2024/01/15 03:33:25;;;;;;;1999.90;999.90;;;;;;;-7.00;79.78;95765.63;5114437;28;20051;-66
2024/01/15 03:35:52;;;;;;;1999.90;999.90;;;;;;;-7.10;79.94;95773.06;5114467;28;20493;-66
2024/01/15 03:38:19;;;;;;;1999.90;999.90;;;;;;;-7.05;81.17;95767.25;5114616;28;20051;-65
2024/01/15 03:40:46;;;;;;;1999.90;999.90;;;;;;;-7.16;81.16;95772.13;5114398;28;20065;-64
2024/01/15 03:43:13;;;;;;;1999.90;999.90;;;;;;;-7.09;81.79;95771.41;5114305;28;20050;-62
2024/01/15 03:45:40;;;;;;;1999.90;999.90;;;;;;;-7.01;81.71;95772.38;5114168;28;20040;-62
2024/01/15 03:48:07;;;;;;;1999.90;999.90;;;;;;;-7.06;80.80;95763.84;5114470;28;20055;-65
2024/01/15 03:50:36;;;;;;;1999.90;999.90;;;;;;;-6.99;81.67;95765.66;5113990;28;20093;-65
2024/01/15 03:53:03;;;;;;;1999.90;999.90;;;;;;;-7.01;81.28;95761.38;5114020;28;20040;-64
2024/01/15 03:55:30;;;;;;;1999.90;999.90;;;;;;;-7.02;81.91;95752.88;5113980;28;20077;-66
2024/01/15 03:57:57;;;;;;;1999.90;999.90;;;;;;;-7.08;82.00;95751.94;5114246;28;20071;-64
2024/01/15 04:00:24;;;;;;;1999.90;999.90;;;;;;;-7.06;81.97;95752.78;5114069;28;20105;-64
2024/01/15 04:02:51;;;;;;;1999.90;999.90;;;;;;;-6.95;81.92;95756.41;5113903;28;20134;-64
2024/01/15 04:05:18;;;;;;;1999.90;999.90;;;;;;;-6.91;81.50;95757.31;5113865;28;20055;-63
2024/01/15 04:07:46;;;;;;;1999.90;999.90;;;;;;;-6.90;81.16;95762.41;5113875;28;20047;-66
2024/01/15 04:10:14;;;;;;;1999.90;999.90;;;;;;;-6.86;81.30;95769.25;5113801;28;20404;-65
2024/01/15 04:12:41;;;;;;;1999.90;999.90;;;;;;;-6.84;80.86;95769.28;5113630;28;20259;-65
2024/01/15 04:15:08;;;;;;;1999.90;999.90;;;;;;;-6.82;80.85;95767.66;5113717;28;20130;-65
2024/01/15 04:17:36;;;;;;;1999.90;999.90;;;;;;;-6.80;80.57;95766.00;5113692;28;20122;-66
2024/01/15 04:20:03;;;;;;;1999.90;999.90;;;;;;;-6.75;80.29;95764.38;5113599;28;20051;-65
2024/01/15 04:22:30;;;;;;;1999.90;999.90;;;;;;;-6.82;79.96;95754.06;5113625;28;20044;-66
2024/01/15 04:24:59;;;;;;;1999.90;999.90;;;;;;;-6.76;80.14;95759.25;5113742;28;20047;-64
2024/01/15 04:27:26;;;;;;;1999.90;999.90;;;;;;;-6.75;79.86;95755.88;5113676;28;20092;-63
2024/01/15 04:29:54;;;;;;;1999.90;999.90;;;;;;;-6.81;79.97;95765.97;5113773;28;20175;-65
2024/01/15 04:32:21;;;;;;;1999.90;999.90;;;;;;;-6.83;79.52;95757.44;5113429;28;20150;-63
2024/01/15 04:34:48;;;;;;;1999.90;999.90;;;;;;;-6.86;80.15;95761.63;5113722;28;20047;-65
2024/01/15 04:37:15;;;;;;;1999.90;999.90;;;;;;;-6.88;80.15;95759.91;5113590;28;20409;-64
2024/01/15 04:39:42;;;;;;;1999.90;999.90;;;;;;;-6.95;79.80;95758.09;5113504;28;20040;-64
2024/01/15 04:42:11;;;;;;;1999.90;999.90;;;;;;;-7.08;80.02;95749.38;5113345;28;20047;-63
2024/01/15 04:44:38;;;;;;;1999.90;999.90;;;;;;;-7.14;80.67;95739.94;5113435;28;20044;-65
2024/01/15 04:47:05;;;;;;;1999.90;999.90;;;;;;;-7.28;81.51;95738.03;5113253;28;20475;-66
2024/01/15 04:49:32;;;;;;;1999.90;999.90;;;;;;;-7.20;81.27;95742.38;5113464;28;20477;-62
2024/01/15 04:51:59;;;;;;;1999.90;999.90;;;;;;;-7.19;81.38;95741.53;5113227;28;20390;-63
2024/01/15 04:54:27;;;;;;;1999.90;999.90;;;;;;;-7.21;81.59;95733.88;5113399;28;20086;-63
2024/01/15 04:56:54;;;;;;;1999.90;999.90;;;;;;;-7.16;82.22;95736.53;5113215;28;20056;-66
2024/01/15 04:59:23;;;;;;;1999.90;999.90;;;;;;;-7.10;82.83;95740.03;5113255;28;20073;-63
2024/01/15 05:01:50;;;;;;;1999.90;999.90;;;;;;;-6.98;82.13;95738.53;5113308;28;20056;-66
2024/01/15 05:04:17;;;;;;;1999.90;999.90;;;;;;;-6.91;81.65;95727.66;5113202;28;20082;-65
2024/01/15 05:06:44;;;;;;;1999.90;999.90;;;;;;;-6.87;81.13;95742.13;5113212;28;20044;-63
2024/01/15 05:09:13;;;;;;;1999.90;999.90;;;;;;;-6.84;80.99;95741.31;5113216;28;20614;-63
2024/01/15 05:11:40;;;;;;;1999.90;999.90;;;;;;;-6.75;80.75;95740.59;5113103;28;20486;-62
2024/01/15 05:14:08;;;;;;;1999.90;999.90;;;;;;;-6.80;80.69;95744.78;5113147;28;20054;-62
2024/01/15 05:16:39;;;;;;;1999.90;999.90;;;;;;;-6.75;80.72;95745.69;5113237;28;20074;-63
2024/01/15 05:19:09;;;;;;;1999.90;999.90;;;;;;;-6.80;80.47;95745.66;5113106;28;20552;-65
2024/01/15 05:21:36;;;;;;;1999.90;999.90;;;;;;;-6.79;80.71;95741.41;5113188;28;20043;-62
2024/01/15 05:24:03;;;;;;;1999.90;999.90;;;;;;;-6.88;81.23;95734.47;5113152;28;20100;-67
2024/01/15 05:26:30;;;;;;;1999.90;999.90;;;;;;;-6.92;81.35;95731.03;5113054;28;20043;-66
2024/01/15 05:28:57;;;;;;;1999.90;999.90;;;;;;;-6.90;81.49;95728.47;5113013;28;20051;-65
2024/01/15 05:31:24;;;;;;;1999.90;999.90;;;;;;;-6.85;81.50;95715.03;5112904;28;20501;-66
2024/01/15 05:33:53;;;;;;;1999.90;999.90;;;;;;;-6.83;81.16;95716.75;5112942;28;20047;-64
2024/01/15 05:36:20;;;;;;;1999.90;999.90;;;;;;;-6.89;81.43;95722.59;5112966;28;20417;-65
2024/01/15 05:38:48;;;;;;;1999.90;999.90;;;;;;;-6.91;81.71;95712.38;5113015;28;20048;-66
2024/01/15 05:41:15;;;;;;;1999.90;999.90;;;;;;;-6.88;81.72;95711.56;5112913;28;20039;-64
2024/01/15 05:43:42;;;;;;;1999.90;999.90;;;;;;;-6.86;81.65;95717.56;5114572;28;20138;-64
2024/01/15 05:46:09;;;;;;;1999.90;999.90;;;;;;;-6.86;81.75;95715.00;5116548;28;20047;-63
2024/01/15 05:48:38;;;;;;;1999.90;999.90;;;;;;;-6.82;81.96;95718.44;5116497;28;20051;-66
2024/01/15 05:51:07;;;;;;;1999.90;999.90;;;;;;;-6.74;81.60;95710.09;5116141;28;20043;-65
2024/01/15 05:53:34;;;;;;;1999.90;999.90;;;;;;;-6.69;81.32;95710.19;5116622;28;20484;-63
2024/01/15 05:56:02;;;;;;;1999.90;999.90;;;;;;;-6.67;80.95;95705.13;5116261;28;20277;-64
2024/01/15 05:58:29;;;;;;;1999.90;999.90;;;;;;;-6.65;80.96;95695.84;5116190;28;20101;-64
2024/01/15 06:00:56;;;;;;;1999.90;999.90;;;;;;;-6.66;80.69;95699.22;5116168;28;20106;-64
2024/01/15 06:03:23;;;;;;;1999.90;999.90;;;;;;;-6.58;80.42;95704.41;5116146;28;20047;-64
2024/01/15 06:05:50;;;;;;;1999.90;999.90;;;;;;;-6.49;79.86;95705.44;5116431;28;20043;-66
2024/01/15 06:08:20;;;;;;;1999.90;999.90;;;;;;;-6.44;79.91;95705.50;5116057;28;20075;-64
2024/01/15 06:10:48;;;;;;;1999.90;999.90;;;;;;;-6.45;79.86;95708.03;5116197;28;20043;-65
2024/01/15 06:13:15;;;;;;;1999.90;999.90;;;;;;;-6.37;80.48;95714.06;5116006;28;20055;-66
2024/01/15 06:15:42;;;;;;;1999.90;999.90;;;;;;;-6.24;80.84;95727.84;5116050;28;20052;-66
2024/01/15 06:18:09;;;;;;;1999.90;999.90;;;;;;;-6.14;80.14;95718.66;5116067;28;20480;-63
2024/01/15 06:20:38;;;;;;;1999.90;999.90;;;;;;;-6.01;79.73;95723.06;5115848;28;20039;-64
2024/01/15 06:23:06;;;;;;;1999.90;999.90;;;;;;;-5.79;79.39;95714.81;5115835;28;20396;-65
2024/01/15 06:25:34;;;;;;;1999.90;999.90;;;;;;;-5.52;78.24;95724.50;5115894;28;20058;-66
2024/01/15 06:28:01;;;;;;;1999.90;999.90;;;;;;;-5.15;77.67;95718.13;5115750;28;20058;-63
2024/01/15 06:30:29;;;;;;;1999.90;999.90;;;;;;;-4.58;75.97;95715.22;5115628;28;20485;-66
2024/01/15 06:32:56;;;;;;;1999.90;999.90;;;;;;;-3.53;74.20;95719.28;5115639;28;20087;-66
2024/01/15 06:35:24;;;;;;;1999.90;999.90;;;;;;;-2.53;70.18;95722.06;5115597;28;20051;-66
2024/01/15 06:37:51;;;;;;;1999.90;999.90;;;;;;;-1.70;65.96;95725.41;5115757;28;20062;-65
2024/01/15 06:40:18;;;;;;;1999.90;999.90;;;;;;;-1.10;63.02;95726.03;5115387;28;20473;-63
2024/01/15 06:42:46;;;;;;;1999.90;999.90;;;;;;;-0.43;60.75;95729.88;5115408;28;20550;-64
2024/01/15 06:45:13;;;;;;;1999.90;999.90;;;;;;;0.25;59.00;95731.03;5115555;28;20451;-66
2024/01/15 06:47:41;;;;;;;1999.90;999.90;;;;;;;0.89;58.08;95738.03;5115421;28;20061;-66
2024/01/15 06:50:09;;;;;;;1999.90;999.90;;;;;;;1.30;56.06;95745.22;5115237;28;20083;-64
2024/01/15 06:52:36;;;;;;;1999.90;999.90;;;;;;;1.67;54.38;95728.34;5115008;28;20047;-67
2024/01/15 06:55:04;;;;;;;1999.90;999.90;;;;;;;2.12;53.39;95719.88;5114131;28;20105;-65
2024/01/15 06:57:31;;;;;;;1999.90;999.90;;;;;;;2.45;52.41;95727.03;5115217;28;20051;-66
2024/01/15 06:59:59;;;;;;;1999.90;999.90;;;;;;;2.78;51.66;95725.53;5115069;28;20492;-65
2024/01/15 07:02:26;;;;;;;1999.90;999.90;;;;;;;3.46;50.25;95718.94;5115003;28;20492;-66
2024/01/15 07:04:53;;;;;;;1999.90;999.90;;;;;;;4.40;48.46;95713.16;5114968;28;20131;-63
2024/01/15 07:07:20;;;;;;;1999.90;999.90;;;;;;;5.46;46.24;95717.13;5115056;28;20126;-67
2024/01/15 07:09:48;;;;;;;1999.90;999.90;;;;;;;6.26;44.30;95725.84;5114969;28;20125;-67
2024/01/15 07:12:16;;;;;;;1999.90;999.90;;;;;;;6.70;43.57;95733.00;5114802;28;20047;-65
2024/01/15 07:14:43;;;;;;;1999.90;999.90;;;;;;;7.65;41.59;95722.59;5114830;28;20047;-65
2024/01/15 07:17:11;;;;;;;1999.90;999.90;;;;;;;8.83;38.95;95719.53;5114755;28;20126;-67
2024/01/15 07:19:38;;;;;;;1999.90;999.90;;;;;;;9.76;36.55;95722.28;5114697;28;20067;-65
2024/01/15 07:22:05;;;;;;;1999.90;999.90;;;;;;;10.54;35.26;95726.34;5114992;28;20055;-66
2024/01/15 07:24:34;;;;;;;1999.90;999.90;;;;;;;11.61;34.18;95724.28;5114971;28;20062;-65
2024/01/15 07:27:01;;;;;;;1999.90;999.90;;;;;;;12.71;32.29;95729.50;5114646;28;20391;-66
2024/01/15 07:29:27;;;;;;;1999.90;999.90;;;;;;;13.44;30.92;95722.47;5114549;28;20040;-64
2024/01/15 07:31:54;;;;;;;1999.90;999.90;;;;;;;14.04;29.80;95732.75;5114290;28;20447;-65
2024/01/15 07:34:23;;;;;;;1999.90;999.90;;;;;;;14.14;28.88;95728.59;5114803;28;20100;-66
2024/01/15 07:36:50;;;;;;;1999.90;999.90;;;;;;;14.25;29.33;95737.56;5114349;28;20553;-67
2024/01/15 07:39:18;;;;;;;1999.90;999.90;;;;;;;14.73;29.07;95742.28;5114319;28;20477;-67
2024/01/15 07:41:45;;;;;;;1999.90;999.90;;;;;;;15.43;28.01;95736.72;5114268;28;20485;-64
2024/01/15 07:44:12;;;;;;;1999.90;999.90;;;;;;;15.72;28.10;95744.34;5114266;28;20134;-65
2024/01/15 07:46:39;;;;;;;1999.90;999.90;;;;;;;15.81;27.80;95742.84;5114216;28;20039;-65
2024/01/15 07:49:06;;;;;;;1999.90;999.90;;;;;;;16.03;26.96;95734.25;5114128;28;20497;-65
2024/01/15 07:51:34;;;;;;;1999.90;999.90;;;;;;;16.19;25.16;95730.47;5113923;28;20081;-68
2024/01/15 07:54:01;;;;;;;1999.90;999.90;;;;;;;16.36;25.07;95726.59;5114059;28;20404;-67
2024/01/15 07:56:28;;;;;;;1999.90;999.90;;;;;;;16.51;26.68;95724.59;5114089;28;20082;-65
2024/01/15 07:58:55;;;;;;;1999.90;999.90;;;;;;;16.62;26.63;95721.13;5114003;28;20108;-64
2024/01/15 08:01:22;;;;;;;1999.90;999.90;;;;;;;16.66;25.50;95725.25;5114001;28;20079;-65
2024/01/15 08:03:49;;;;;;;1999.90;999.90;;;;;;;16.54;25.63;95723.53;5114014;28;20508;-63
2024/01/15 08:06:17;;;;;;;1999.90;999.90;;;;;;;16.62;25.58;95726.41;5113617;28;20094;-64
2024/01/15 08:08:45;;;;;;;1999.90;999.90;;;;;;;16.77;24.47;95723.59;5114050;28;20132;-64
2024/01/15 08:11:12;;;;;;;1999.90;999.90;;;;;;;16.82;24.70;95728.53;5113868;28;20198;-63
2024/01/15 08:13:39;;;;;;;1999.90;999.90;;;;;;;16.48;25.23;95740.66;5113683;28;20047;-63
2024/01/15 08:16:07;;;;;;;1999.90;999.90;;;;;;;16.85;24.79;95731.75;5113838;28;20106;-68
2024/01/15 08:18:34;;;;;;;1999.90;999.90;;;;;;;16.48;25.34;95722.19;5113666;28;20495;-63
2024/01/15 08:21:02;;;;;;;1999.90;999.90;;;;;;;16.32;25.47;95722.50;5113554;28;20100;-64
2024/01/15 08:23:31;;;;;;;1999.90;999.90;;;;;;;15.71;26.34;95713.66;5113520;28;20477;-63
2024/01/15 08:25:59;;;;;;;1999.90;999.90;;;;;;;15.58;27.39;95707.56;5113412;28;20481;-65
2024/01/15 08:28:26;;;;;;;1999.90;999.90;;;;;;;15.20;27.12;95707.53;5113702;28;20097;-66
2024/01/15 08:30:53;;;;;;;1999.90;999.90;;;;;;;14.39;28.64;95708.53;5113669;28;20054;-66
2024/01/15 08:33:20;;;;;;;1999.90;999.90;;;;;;;13.69;29.64;95712.22;5113633;28;20091;-66
2024/01/15 08:35:47;;;;;;;1999.90;999.90;;;;;;;13.31;30.16;95708.41;5113474;28;20043;-63
2024/01/15 08:38:14;;;;;;;1999.90;999.90;;;;;;;12.70;31.00;95697.16;5113429;28;20147;-67
2024/01/15 08:40:41;;;;;;;1999.90;999.90;;;;;;;11.87;32.39;95708.88;5113684;28;20058;-62
2024/01/15 08:43:09;;;;;;;1999.90;999.90;;;;;;;11.08;33.67;95683.47;5113260;28;20489;-63
2024/01/15 08:45:36;;;;;;;1999.90;999.90;;;;;;;10.75;34.91;95705.28;5113380;28;20507;-63
2024/01/15 08:48:04;;;;;;;1999.90;999.90;;;;;;;10.07;36.49;95712.97;5113267;28;20056;-67
2024/01/15 08:50:32;;;;;;;1999.90;999.90;;;;;;;9.27;38.27;95715.00;5113330;28;20089;-65
2024/01/15 08:52:59;;;;;;;1999.90;999.90;;;;;;;8.69;39.12;95714.91;5113247;28;20052;-68
2024/01/15 08:55:26;;;;;;;1999.90;999.90;;;;;;;8.27;39.10;95716.63;5113343;28;20044;-67
2024/01/15 08:57:54;;;;;;;1999.90;999.90;;;;;;;7.64;41.21;95700.06;5113275;28;20054;-65
2024/01/15 09:00:22;;;;;;;1999.90;999.90;;;;;;;7.64;41.76;95707.88;5113373;28;20066;-63
2024/01/15 09:02:49;;;;;;;1999.90;999.90;;;;;;;7.92;41.39;95704.19;5113513;28;20048;-64
2024/01/15 09:05:17;;;;;;;1999.90;999.90;;;;;;;8.31;40.23;95695.59;5113514;28;20055;-65
2024/01/15 09:07:45;;;;;;;1999.90;999.90;;;;;;;8.42;40.07;95692.56;5113163;28;20044;-65
2024/01/15 09:10:13;;;;;;;1999.90;999.90;;;;;;;8.78;39.83;95690.19;5113140;28;20055;-65
2024/01/15 09:12:40;;;;;;;1999.90;999.90;;;;;;;8.74;39.39;95671.25;5113078;28;20485;-67
2024/01/15 09:15:08;;;;;;;1999.90;999.90;;;;;;;8.64;38.93;95673.38;5113162;28;20054;-64
2024/01/15 09:17:36;;;;;;;1999.90;999.90;;;;;;;8.31;38.34;95671.31;5113186;28;20056;-66
2024/01/15 09:20:05;;;;;;;1999.90;999.90;;;;;;;8.27;39.05;95670.59;5117157;28;20044;-64
2024/01/15 09:22:32;;;;;;;1999.90;999.90;;;;;;;8.27;40.05;95654.97;5117020;28;20047;-65
2024/01/15 09:25:00;;;;;;;1999.90;999.90;;;;;;;8.16;40.41;95660.63;5117363;28;20100;-62
2024/01/15 09:27:27;;;;;;;1999.90;999.90;;;;;;;7.87;41.09;95654.03;5117104;28;20047;-63
2024/01/15 09:29:54;;;;;;;1999.90;999.90;;;;;;;7.31;42.47;95655.34;5116831;28;20048;-68
2024/01/15 09:32:21;;;;;;;1999.90;999.90;;;;;;;7.32;42.95;95643.22;5116655;28;20049;-62
2024/01/15 09:34:50;;;;;;;1999.90;999.90;;;;;;;7.38;42.72;95639.50;5116729;28;20101;-67
2024/01/15 09:37:17;;;;;;;1999.90;999.90;;;;;;;7.42;42.02;95630.66;5116639;28;20043;-66
2024/01/15 09:39:44;;;;;;;1999.90;999.90;;;;;;;7.48;42.04;95627.81;5116812;28;20150;-65
2024/01/15 09:42:12;;;;;;;1999.90;999.90;;;;;;;7.46;42.20;95627.03;5116729;28;20483;-66
2024/01/15 09:44:39;;;;;;;1999.90;999.90;;;;;;;7.26;42.50;95618.28;5116639;28;20043;-65
2024/01/15 09:47:07;;;;;;;1999.90;999.90;;;;;;;7.28;42.60;95606.03;5116659;28;20047;-67
2024/01/15 09:49:34;;;;;;;1999.90;999.90;;;;;;;7.27;42.36;95609.56;5116539;28;20052;-64
2024/01/15 09:52:04;;;;;;;1999.90;999.90;;;;;;;7.10;40.75;95606.78;5116320;28;20513;-66
2024/01/15 09:54:32;;;;;;;1999.90;999.90;;;;;;;6.87;41.39;95598.97;5116437;28;20047;-65
2024/01/15 09:57:00;;;;;;;1999.90;999.90;;;;;;;6.80;42.00;95600.94;5116452;28;20054;-65
2024/01/15 09:59:29;;;;;;;1999.90;999.90;;;;;;;6.65;41.96;95591.13;5116248;28;20122;-65
2024/01/15 10:01:58;;;;;;;1999.90;999.90;;;;;;;6.39;42.66;95587.75;5116394;28;20126;-65
2024/01/15 10:04:25;;;;;;;1999.90;999.90;;;;;;;6.19;43.01;95577.19;5116250;28;20047;-66
2024/01/15 10:06:53;;;;;;;1999.90;999.90;;;;;;;5.94;43.95;95569.38;5116220;28;20097;-65
2024/01/15 10:09:21;;;;;;;1999.90;999.90;;;;;;;5.76;44.05;95561.34;5116316;28;20045;-66
2024/01/15 10:11:51;;;;;;;1999.90;999.90;;;;;;;5.54;45.03;95556.88;5116158;28;20043;-63
2024/01/15 10:14:18;;;;;;;1999.90;999.90;;;;;;;5.51;45.70;95556.97;5116038;28;20052;-66
2024/01/15 10:16:45;;;;;;;1999.90;999.90;;;;;;;5.56;44.51;95549.03;5115999;28;20047;-64
2024/01/15 10:19:12;;;;;;;1999.90;999.90;;;;;;;5.60;44.77;95537.63;5115803;28;20073;-66
2024/01/15 10:21:39;;;;;;;1999.90;999.90;;;;;;;5.65;44.93;95542.69;5115938;28;20052;-65
2024/01/15 10:24:07;;;;;;;1999.90;999.90;;;;;;;5.81;44.56;95549.03;5115936;28;20048;-67
2024/01/15 10:26:35;;;;;;;1999.90;999.90;;;;;;;6.04;44.62;95546.56;5115873;28;20047;-68
2024/01/15 10:29:02;;;;;;;1999.90;999.90;;;;;;;6.26;43.89;95545.78;5115894;28;20408;-67
2024/01/15 10:31:29;;;;;;;1999.90;999.90;;;;;;;6.28;44.57;95537.03;5115756;28;20098;-67
2024/01/15 10:34:12;;;;;;;1999.90;999.90;;;;;;;6.28;44.51;95544.81;5115634;28;20104;-68
2024/01/15 10:36:41;;;;;;;1999.90;999.90;;;;;;;6.32;44.49;95542.94;5115622;28;20543;-66
2024/01/15 10:39:08;;;;;;;1999.90;999.90;;;;;;;6.39;44.72;95538.38;5115644;28;20481;-66
2024/01/15 10:41:37;;;;;;;1999.90;999.90;;;;;;;6.47;43.64;95528.53;5115853;28;20047;-66
2024/01/15 10:44:04;;;;;;;1999.90;999.90;;;;;;;6.43;43.55;95526.97;5115526;28;20043;-67
2024/01/15 10:46:32;;;;;;;1999.90;999.90;;;;;;;6.32;42.97;95515.22;5115297;28;20519;-65
2024/01/15 10:49:00;;;;;;;1999.90;999.90;;;;;;;6.20;44.50;95515.69;5115698;28;20047;-67
2024/01/15 10:51:27;;;;;;;1999.90;999.90;;;;;;;6.30;45.04;95508.41;5115149;28;20043;-65
2024/01/15 10:53:56;;;;;;;1999.90;999.90;;;;;;;6.44;45.36;95507.88;5115117;28;20117;-67
2024/01/15 10:56:24;;;;;;;1999.90;999.90;;;;;;;6.62;44.30;95502.91;5115255;28;20083;-65
2024/01/15 10:58:55;;;;;;;1999.90;999.90;;;;;;;6.64;43.50;95494.13;5115110;28;20083;-68